Time;durP1;ratioP1;P1;durP2;ratioP2;P2;SDS_P1;SDS_P2;PMS_P1;PMS_P2;Temp;Humidity;BMP_temperature;BMP_pressure;BME280_temperature;BME280_humidity;BME280_pressure;Samples;Min_cycle;Max_cycle;Signal;HPM_P1;HPM_P2
2022/04/24 00:01:24;;;;;;;10.88;9.25;;;9.10;99.90;;;;;;4914213;29;20041;-83
2022/04/24 00:03:50;;;;;;;12.75;8.63;;;9.00;99.90;;;;;;4913197;29;20085;-83
2022/04/24 00:06:15;;;;;;;12.95;8.85;;;9.20;99.90;;;;;;4915961;29;20044;-82
2022/04/24 00:08:41;;;;;;;9.48;7.90;;;9.10;99.90;;;;;;4915149;29;20102;-83
2022/04/24 00:11:07;;;;;;;11.18;9.02;;;9.00;99.90;;;;;;4915440;29;20055;-83
2022/04/24 00:13:38;;;;;;;9.88;8.60;;;9.10;99.90;;;;;;4914648;29;20051;-83
2022/04/24 00:16:05;;;;;;;10.32;8.43;;;9.30;99.90;;;;;;4898659;29;20616;-84
2022/04/24 00:18:30;;;;;;;9.43;8.43;;;9.20;99.90;;;;;;4914368;29;20044;-83
2022/04/24 00:20:56;;;;;;;10.27;8.82;;;9.10;99.90;;;;;;4914854;29;20127;-83
2022/04/24 00:23:22;;;;;;;10.02;8.98;;;8.90;99.90;;;;;;4914149;29;20062;-83
2022/04/24 00:25:47;;;;;;;11.45;9.05;;;9.10;99.90;;;;;;4914674;29;20044;-83
2022/04/24 00:28:13;;;;;;;11.13;8.70;;;9.00;99.90;;;;;;4898647;29;20088;-84
2022/04/24 00:30:39;;;;;;;11.95;7.53;;;8.90;99.90;;;;;;4913299;29;20507;-83
2022/04/24 00:33:05;;;;;;;11.13;8.90;;;9.00;99.90;;;;;;4898424;29;20082;-82
2022/04/24 00:35:31;;;;;;;9.57;8.57;;;8.80;99.90;;;;;;4914317;29;20123;-83
2022/04/24 00:38:01;;;;;;;9.88;8.25;;;8.90;99.90;;;;;;4920492;29;20044;-83
2022/04/24 00:40:27;;;;;;;10.65;8.18;;;8.80;99.90;;;;;;4926829;29;20044;-83
2022/04/24 00:42:52;;;;;;;13.25;9.38;;;8.70;99.90;;;;;;4914993;29;20106;-83
2022/04/24 00:45:18;;;;;;;10.77;8.38;;;8.70;99.90;;;;;;4920177;29;20067;-82
2022/04/24 00:47:44;;;;;;;11.73;7.78;;;8.90;99.90;;;;;;4924097;29;20048;-83
2022/04/24 00:50:09;;;;;;;10.20;9.15;;;8.80;99.90;;;;;;4913500;29;20062;-83
2022/04/24 00:52:36;;;;;;;10.13;8.63;;;8.70;99.90;;;;;;4916087;29;20138;-82
2022/04/24 00:55:01;;;;;;;13.65;8.32;;;8.60;99.90;;;;;;4915222;29;20051;-82
2022/04/24 00:57:27;;;;;;;8.32;5.72;;;8.60;99.90;;;;;;4901942;29;20056;-83
2022/04/24 00:59:53;;;;;;;10.60;8.45;;;8.70;99.90;;;;;;4901288;29;20052;-83
2022/04/24 01:02:18;;;;;;;11.80;9.45;;;8.60;99.90;;;;;;4926696;29;20044;-82
2022/04/24 01:04:44;;;;;;;11.75;9.77;;;8.40;99.90;;;;;;4937914;29;20056;-82
2022/04/24 01:07:10;;;;;;;12.57;10.05;;;8.60;99.90;;;;;;4933009;29;20091;-82
2022/04/24 01:09:36;;;;;;;10.48;8.45;;;8.20;99.90;;;;;;4920877;29;20053;-84
2022/04/24 01:12:02;;;;;;;11.48;8.35;;;8.20;99.90;;;;;;4917462;29;20044;-82
2022/04/24 01:14:30;;;;;;;10.45;7.97;;;8.40;99.90;;;;;;4917821;29;20054;-82
2022/04/24 01:16:56;;;;;;;10.82;9.45;;;8.40;99.90;;;;;;4917171;29;20052;-83
2022/04/24 01:19:22;;;;;;;13.27;9.15;;;8.30;99.90;;;;;;4918970;29;20143;-81
2022/04/24 01:21:48;;;;;;;14.95;10.27;;;8.30;99.90;;;;;;4916655;29;20488;-83
2022/04/24 01:24:17;;;;;;;13.65;10.65;;;8.20;99.90;;;;;;4919184;29;20106;-81
2022/04/24 01:26:42;;;;;;;11.93;8.02;;;8.10;99.90;;;;;;4917385;29;20103;-83
2022/04/24 01:29:09;;;;;;;13.00;9.60;;;8.00;99.90;;;;;;4901497;29;20130;-83
2022/04/24 01:31:35;;;;;;;11.80;10.10;;;8.20;99.90;;;;;;4917296;29;20477;-82
2022/04/24 01:34:01;;;;;;;9.88;8.45;;;8.20;99.90;;;;;;4918499;29;20078;-82
2022/04/24 01:36:26;;;;;;;11.50;7.93;;;8.20;99.90;;;;;;4901740;29;20131;-83
2022/04/24 01:38:52;;;;;;;12.45;8.75;;;8.20;99.90;;;;;;4916107;29;20433;-84
2022/04/24 01:41:18;;;;;;;13.80;10.20;;;8.30;99.90;;;;;;4901648;29;20139;-83
2022/04/24 01:43:44;;;;;;;11.05;9.57;;;8.20;99.90;;;;;;4918078;29;20059;-83
2022/04/24 01:46:11;;;;;;;10.88;8.98;;;8.10;99.90;;;;;;4918228;29;20060;-83
2022/04/24 01:48:36;;;;;;;13.07;9.85;;;8.10;99.90;;;;;;4917259;29;20044;-81
2022/04/24 01:51:07;;;;;;;10.88;8.77;;;8.20;99.90;;;;;;4916535;29;20056;-83
2022/04/24 01:53:33;;;;;;;11.90;8.48;;;8.20;99.90;;;;;;4918093;29;20048;-82
2022/04/24 01:56:01;;;;;;;10.48;8.07;;;8.30;99.90;;;;;;4916402;29;20401;-83
2022/04/24 01:58:27;;;;;;;11.70;9.20;;;8.20;99.90;;;;;;4916671;29;20052;-84
2022/04/24 02:00:52;;;;;;;11.25;9.57;;;8.00;99.90;;;;;;4915670;29;20055;-84
2022/04/24 02:03:19;;;;;;;11.70;9.63;;;8.10;99.90;;;;;;4916427;29;20053;-82
2022/04/24 02:05:44;;;;;;;10.57;8.65;;;7.90;99.90;;;;;;4916303;29;20465;-80
2022/04/24 02:08:10;;;;;;;10.20;9.10;;;8.00;99.90;;;;;;4900799;29;20136;-82
2022/04/24 02:10:36;;;;;;;11.40;9.40;;;8.40;99.90;;;;;;4917612;29;20046;-82
2022/04/24 02:13:02;;;;;;;12.43;9.40;;;8.00;99.90;;;;;;4900135;29;20482;-83
2022/04/24 02:15:28;;;;;;;12.93;10.35;;;7.90;99.90;;;;;;4916186;29;20151;-82
2022/04/24 02:17:55;;;;;;;12.15;10.50;;;7.90;99.90;;;;;;4884934;29;20048;-82
2022/04/24 02:20:21;;;;;;;11.18;9.32;;;7.80;99.90;;;;;;4916209;29;20142;-83
2022/04/24 02:22:49;;;;;;;12.02;9.23;;;8.00;99.90;;;;;;4915594;29;20143;-80
2022/04/24 02:25:15;;;;;;;13.35;10.02;;;7.80;99.90;;;;;;4916671;29;20541;-82
2022/04/24 02:27:41;;;;;;;12.98;9.63;;;7.60;99.90;;;;;;4917539;29;20056;-83
2022/04/24 02:30:07;;;;;;;11.10;9.73;;;7.80;99.90;;;;;;4917509;29;20048;-82
2022/04/24 02:32:33;;;;;;;10.75;9.63;;;7.80;99.90;;;;;;4916858;29;20044;-82
2022/04/24 02:34:59;;;;;;;10.68;8.93;;;7.80;99.90;;;;;;4916329;29;20511;-82
2022/04/24 02:37:25;;;;;;;13.02;9.30;;;7.80;99.90;;;;;;4917355;29;20109;-82
2022/04/24 02:39:52;;;;;;;11.88;10.00;;;7.70;99.90;;;;;;4916974;29;20055;-82
2022/04/24 02:42:17;;;;;;;12.50;8.90;;;8.10;99.90;;;;;;4901075;29;20119;-83
2022/04/24 02:44:43;;;;;;;10.68;9.50;;;7.60;99.90;;;;;;4916717;29;20549;-83
2022/04/24 02:47:09;;;;;;;11.82;9.75;;;7.70;99.90;;;;;;4917030;29;20516;-82
2022/04/24 02:49:35;;;;;;;12.50;9.75;;;7.60;99.90;;;;;;4899183;29;20207;-83
2022/04/24 02:52:00;;;;;;;11.25;9.15;;;7.40;99.90;;;;;;4915851;29;20118;-83
2022/04/24 02:54:26;;;;;;;11.55;9.32;;;8.20;99.90;;;;;;4916562;29;20339;-83
2022/04/24 02:56:51;;;;;;;10.90;9.20;;;7.40;99.90;;;;;;4914151;29;20083;-83
2022/04/24 02:59:17;;;;;;;11.45;7.90;;;7.40;99.90;;;;;;4914002;29;20052;-82
2022/04/24 03:01:45;;;;;;;12.23;8.95;;;7.30;99.90;;;;;;4914983;29;20139;-82
2022/04/24 03:04:12;;;;;;;11.75;10.45;;;7.60;99.90;;;;;;4898974;29;20278;-83
2022/04/24 03:06:38;;;;;;;12.80;10.07;;;7.40;99.90;;;;;;4914525;29;20079;-82
2022/04/24 03:09:05;;;;;;;13.77;10.00;;;7.40;99.90;;;;;;4898439;29;20103;-82
2022/04/24 03:11:30;;;;;;;14.27;11.13;;;7.40;99.90;;;;;;4898730;29;20062;-82
2022/04/24 03:13:56;;;;;;;14.15;10.90;;;7.40;99.90;;;;;;4898616;29;20512;-82
2022/04/24 03:16:22;;;;;;;9.35;7.78;;;7.20;99.90;;;;;;4915208;29;20400;-83
2022/04/24 03:18:48;;;;;;;10.77;9.52;;;7.20;99.90;;;;;;4898614;29;20052;-83
2022/04/24 03:21:13;;;;;;;11.23;10.02;;;7.30;99.90;;;;;;4883308;29;20055;-82
2022/04/24 03:23:39;;;;;;;10.82;9.38;;;7.20;99.90;;;;;;4917321;29;20036;-83
2022/04/24 03:26:05;;;;;;;10.43;8.13;;;7.20;99.90;;;;;;4887313;29;20079;-83
2022/04/24 03:28:30;;;;;;;12.60;10.60;;;7.20;99.90;;;;;;4930836;29;20103;-82
2022/04/24 03:30:56;;;;;;;10.95;9.60;;;7.20;99.90;;;;;;4928478;29;20056;-81
2022/04/24 03:33:22;;;;;;;12.27;10.00;;;7.20;99.90;;;;;;4927252;29;20052;-82
2022/04/24 03:35:47;;;;;;;12.98;10.55;;;7.30;99.90;;;;;;4921417;29;20088;-82
2022/04/24 03:38:13;;;;;;;13.43;10.57;;;7.10;99.90;;;;;;4919828;29;20044;-82
2022/04/24 03:40:39;;;;;;;14.98;11.20;;;7.10;99.90;;;;;;4913626;29;20080;-82
2022/04/24 03:43:05;;;;;;;10.63;7.72;;;7.20;99.90;;;;;;4920858;29;20048;-83
2022/04/24 03:45:34;;;;;;;10.75;9.60;;;7.20;99.90;;;;;;4917082;29;20417;-82
2022/04/24 03:47:59;;;;;;;11.85;10.25;;;7.40;99.90;;;;;;4926995;29;20040;-83
2022/04/24 03:50:25;;;;;;;12.95;10.10;;;7.20;99.90;;;;;;4914996;29;129802;-83
2022/04/24 03:52:51;;;;;;;13.85;10.90;;;7.20;99.90;;;;;;4918318;29;20055;-82
2022/04/24 03:55:16;;;;;;;11.90;7.97;;;7.30;99.90;;;;;;4915151;29;20056;-84
2022/04/24 03:57:42;;;;;;;13.88;9.23;;;7.30;99.90;;;;;;4915057;29;20489;-84
2022/04/24 04:00:08;;;;;;;11.35;8.55;;;7.20;99.90;;;;;;4915607;29;20047;-83
2022/04/24 04:02:46;;;;;;;11.05;7.78;;;7.30;99.90;;;;;;4914776;29;20368;-84
2022/04/24 04:05:13;;;;;;;14.15;10.50;;;7.40;99.90;;;;;;4914543;29;20098;-83
2022/04/24 04:07:38;;;;;;;15.73;10.88;;;7.30;99.90;;;;;;4915251;29;20078;-84
2022/04/24 04:10:06;;;;;;;13.95;11.25;;;7.60;99.90;;;;;;4916378;29;20492;-83
2022/04/24 04:12:32;;;;;;;11.77;9.43;;;7.30;99.90;;;;;;4899615;29;20048;-84
2022/04/24 04:15:03;;;;;;;14.20;8.77;;;7.30;99.90;;;;;;4915221;29;20060;-84
2022/04/24 04:17:28;;;;;;;12.00;9.65;;;7.30;99.90;;;;;;4900103;29;20062;-83
2022/04/24 04:19:54;;;;;;;14.05;10.35;;;7.70;99.90;;;;;;4916396;29;20052;-82
2022/04/24 04:22:20;;;;;;;12.80;11.05;;;7.10;99.90;;;;;;4915221;29;20096;-82
2022/04/24 04:24:45;;;;;;;12.70;10.00;;;7.00;99.90;;;;;;4915885;29;20055;-82
2022/04/24 04:27:11;;;;;;;12.73;10.23;;;7.10;99.90;;;;;;4916222;29;20095;-83
2022/04/24 04:29:37;;;;;;;15.13;10.95;;;7.10;99.90;;;;;;4916726;29;20059;-83
2022/04/24 04:32:03;;;;;;;13.05;10.05;;;7.50;99.90;;;;;;4903323;29;20055;-82
2022/04/24 04:34:28;;;;;;;11.93;8.85;;;7.00;99.90;;;;;;4919093;29;20092;-82
2022/04/24 04:36:54;;;;;;;15.20;11.60;;;7.00;99.90;;;;;;4918946;29;20126;-83
2022/04/24 04:39:20;;;;;;;12.77;10.57;;;7.00;99.90;;;;;;4918346;29;20048;-83
2022/04/24 04:41:46;;;;;;;12.88;10.63;;;7.10;99.90;;;;;;4918513;29;20067;-83
2022/04/24 04:44:12;;;;;;;14.90;10.68;;;7.10;99.90;;;;;;4918843;29;20107;-83
2022/04/24 04:46:38;;;;;;;12.18;8.98;;;7.50;99.90;;;;;;4919573;29;20508;-83
2022/04/24 04:49:03;;;;;;;12.80;10.35;;;7.20;99.90;;;;;;4918772;29;20089;-83
2022/04/24 04:51:30;;;;;;;12.07;10.02;;;7.10;99.90;;;;;;4918196;29;20358;-82
2022/04/24 04:53:55;;;;;;;10.48;8.55;;;7.10;99.90;;;;;;4902480;29;20468;-82
2022/04/24 04:56:22;;;;;;;13.45;11.13;;;7.40;99.90;;;;;;4901346;29;20052;-83
2022/04/24 04:58:47;;;;;;;11.65;9.57;;;8.20;99.90;;;;;;4918676;29;20044;-83
2022/04/24 05:01:13;;;;;;;11.57;9.60;;;7.30;99.90;;;;;;4901740;29;20525;-83
2022/04/24 05:03:39;;;;;;;13.23;10.27;;;7.30;99.90;;;;;;4918295;29;20048;-83
2022/04/24 05:06:05;;;;;;;13.48;10.85;;;7.30;99.90;;;;;;4901871;29;20055;-83
2022/04/24 05:08:30;;;;;;;14.50;10.50;;;7.20;99.90;;;;;;4917952;29;20048;-82
2022/04/24 05:10:56;;;;;;;12.38;9.85;;;7.30;99.90;;;;;;4917972;29;20060;-82
2022/04/24 05:13:22;;;;;;;14.63;9.52;;;7.50;99.90;;;;;;4915978;29;20548;-81
2022/04/24 05:15:47;;;;;;;10.73;8.20;;;7.50;99.90;;;;;;4917325;29;20541;-83
2022/04/24 05:18:13;;;;;;;15.40;10.18;;;7.70;99.90;;;;;;4916649;29;20074;-82
2022/04/24 05:20:39;;;;;;;12.85;9.25;;;7.70;99.90;;;;;;4917150;29;20382;-83
2022/04/24 05:23:05;;;;;;;10.80;8.55;;;7.50;99.90;;;;;;4918313;29;20119;-82
2022/04/24 05:25:31;;;;;;;13.10;10.40;;;7.90;99.90;;;;;;4916397;29;20080;-83
2022/04/24 05:27:57;;;;;;;13.60;9.93;;;7.80;99.90;;;;;;4916798;29;20056;-82
2022/04/24 05:30:23;;;;;;;8.43;6.65;;;7.80;99.90;;;;;;4917302;29;20413;-82
2022/04/24 05:32:50;;;;;;;13.02;10.43;;;8.00;99.90;;;;;;4918354;29;20044;-81
2022/04/24 05:35:16;;;;;;;10.43;7.68;;;8.00;99.90;;;;;;4916536;29;20048;-83
2022/04/24 05:37:42;;;;;;;12.63;9.20;;;8.20;99.90;;;;;;4917998;29;20108;-81
2022/04/24 05:40:08;;;;;;;11.18;7.95;;;8.40;99.90;;;;;;4916858;29;20553;-81
2022/04/24 05:42:34;;;;;;;12.70;9.40;;;8.50;99.90;;;;;;4907795;29;20050;-81
2022/04/24 05:45:04;;;;;;;14.40;10.95;;;8.60;99.90;;;;;;4936212;29;20040;-81
2022/04/24 05:47:30;;;;;;;13.27;10.10;;;8.30;99.90;;;;;;4930724;29;20051;-83
2022/04/24 05:49:55;;;;;;;16.48;10.18;;;8.50;99.90;;;;;;4902159;29;20142;-81
2022/04/24 05:52:21;;;;;;;12.73;10.02;;;8.80;99.90;;;;;;4917950;29;20052;-83
2022/04/24 05:54:47;;;;;;;12.60;10.02;;;9.10;99.90;;;;;;4901230;29;20056;-83
2022/04/24 05:57:13;;;;;;;13.75;9.63;;;9.10;99.90;;;;;;4916811;29;20056;-81
2022/04/24 05:59:38;;;;;;;11.20;9.85;;;9.80;99.90;;;;;;4901047;29;20401;-84
2022/04/24 06:02:04;;;;;;;10.60;7.95;;;9.50;99.90;;;;;;4917751;29;20040;-83
2022/04/24 06:04:30;;;;;;;14.55;10.30;;;10.30;99.90;;;;;;4917491;29;20052;-83
2022/04/24 06:06:56;;;;;;;11.77;7.80;;;10.20;99.90;;;;;;4917784;29;20052;-83
2022/04/24 06:09:21;;;;;;;11.38;8.55;;;10.60;99.90;;;;;;4916070;29;20044;-83
2022/04/24 06:11:47;;;;;;;9.48;7.47;;;10.70;99.90;;;;;;4917110;29;20102;-82
2022/04/24 06:14:14;;;;;;;9.80;7.13;;;11.10;99.90;;;;;;4917894;29;20044;-82
2022/04/24 06:16:39;;;;;;;12.80;9.65;;;11.30;99.90;;;;;;4916093;29;20131;-82
2022/04/24 06:19:05;;;;;;;13.07;7.70;;;10.90;99.90;;;;;;4916616;29;20480;-82
2022/04/24 06:21:31;;;;;;;10.88;9.30;;;11.40;99.90;;;;;;4916040;29;20094;-82
2022/04/24 06:23:56;;;;;;;11.05;8.00;;;11.50;99.90;;;;;;4916921;29;20103;-82
2022/04/24 06:26:22;;;;;;;13.23;9.60;;;12.00;99.90;;;;;;4915614;29;20048;-82
2022/04/24 06:28:48;;;;;;;9.02;5.93;;;12.20;99.90;;;;;;4915691;29;20052;-83
2022/04/24 06:31:13;;;;;;;11.20;8.18;;;12.30;99.90;;;;;;4917096;29;20544;-82
2022/04/24 06:33:39;;;;;;;10.57;9.35;;;12.00;99.90;;;;;;4916211;29;20095;-83
2022/04/24 06:36:05;;;;;;;11.93;8.73;;;12.20;99.90;;;;;;4917159;29;20096;-82
2022/04/24 06:38:30;;;;;;;9.60;6.65;;;12.10;99.90;;;;;;4915178;29;20471;-82
2022/04/24 06:40:56;;;;;;;6.68;5.85;;;11.90;99.90;;;;;;4908248;29;20550;-83
2022/04/24 06:43:22;;;;;;;9.60;7.15;;;11.30;99.90;;;;;;4922903;29;20125;-82
2022/04/24 06:45:47;;;;;;;9.85;6.75;;;11.30;99.90;;;;;;4917245;29;20485;-82
2022/04/24 06:48:15;;;;;;;11.23;7.15;;;11.30;99.90;;;;;;4906719;29;20128;-82
2022/04/24 06:50:45;;;;;;;8.32;6.47;;;10.90;99.90;;;;;;4925830;29;20068;-82
2022/04/24 06:53:17;;;;;;;9.48;6.72;;;11.00;99.90;;;;;;4875544;29;20063;-82
2022/04/24 06:55:43;;;;;;;11.75;6.85;;;11.10;99.90;;;;;;4922158;29;20055;-81
2022/04/24 06:58:11;;;;;;;8.52;5.70;;;11.20;99.90;;;;;;4903316;29;20052;-81
2022/04/24 07:00:38;;;;;;;9.75;5.55;;;11.50;99.90;;;;;;4917478;29;20052;-82
2022/04/24 07:03:23;;;;;;;7.80;5.53;;;11.40;99.90;;;;;;4917996;29;20048;-83
2022/04/24 07:05:50;;;;;;;8.75;5.00;;;11.60;99.90;;;;;;4916251;29;20044;-81
2022/04/24 07:08:15;;;;;;;7.60;5.43;;;11.90;99.90;;;;;;4884759;29;20052;-82
2022/04/24 07:10:41;;;;;;;7.40;6.15;;;12.60;99.90;;;;;;4916318;29;20138;-82
2022/04/24 07:13:07;;;;;;;5.50;4.82;;;12.80;99.90;;;;;;4883733;29;20051;-82
2022/04/24 07:15:35;;;;;;;6.32;4.35;;;13.70;99.90;;;;;;4915246;29;20056;-82
2022/04/24 07:18:01;;;;;;;7.15;5.20;;;14.10;99.90;;;;;;4914905;29;20048;-82
2022/04/24 07:20:28;;;;;;;8.05;5.22;;;12.40;99.90;;;;;;4915816;29;20559;-83
2022/04/24 07:22:57;;;;;;;5.28;4.05;;;12.50;99.90;;;;;;4916335;29;20524;-83
2022/04/24 07:25:24;;;;;;;7.22;3.80;;;12.30;99.90;;;;;;4884516;29;20160;-82
2022/04/24 07:27:50;;;;;;;5.00;4.10;;;12.60;99.90;;;;;;4899291;29;20044;-82
2022/04/24 07:30:17;;;;;;;6.45;4.65;;;12.60;99.90;;;;;;4915237;29;20182;-80
2022/04/24 07:32:54;;;;;;;4.63;3.20;;;13.00;99.90;;;;;;4914163;29;20127;-82
2022/04/24 07:35:26;;;;;;;6.93;4.32;;;13.50;99.90;;;;;;4898794;29;20063;-83
2022/04/24 07:37:52;;;;;;;5.45;4.13;;;14.20;99.90;;;;;;4899749;29;20123;-82
2022/04/24 07:40:19;;;;;;;6.35;3.83;;;14.50;99.90;;;;;;4915079;29;20048;-81
2022/04/24 07:42:49;;;;;;;3.55;2.88;;;14.80;99.90;;;;;;4927069;29;20405;-83
2022/04/24 07:45:27;;;;;;;4.63;3.28;;;15.40;99.90;;;;;;4896593;29;20059;-81
2022/04/24 07:47:53;;;;;;;4.78;3.72;;;15.60;99.90;;;;;;4929523;29;20138;-80
2022/04/24 07:50:21;;;;;;;5.47;3.47;;;15.00;99.90;;;;;;4916263;29;20067;-81
2022/04/24 07:52:47;;;;;;;3.88;2.67;;;15.70;99.90;;;;;;4920728;29;20404;-81
2022/04/24 07:55:15;;;;;;;4.05;2.25;;;16.70;99.90;;;;;;4902465;29;20055;-81
2022/04/24 07:57:40;;;;;;;4.40;2.50;;;16.50;99.90;;;;;;4930324;29;20086;-81
2022/04/24 08:00:09;;;;;;;4.05;2.85;;;16.10;99.90;;;;;;4931476;29;20047;-80
2022/04/24 08:02:46;;;;;;;5.75;3.30;;;15.90;99.90;;;;;;4924091;29;20048;-82
2022/04/24 08:05:12;;;;;;;3.85;2.58;;;15.70;99.90;;;;;;4921863;29;20492;-81
2022/04/24 08:07:37;;;;;;;5.63;3.10;;;15.60;99.90;;;;;;4932809;29;20398;-81
2022/04/24 08:10:03;;;;;;;3.10;2.80;;;15.70;99.90;;;;;;4921855;29;20151;-81
2022/04/24 08:12:29;;;;;;;3.40;2.28;;;15.10;99.90;;;;;;4922777;29;20056;-82
2022/04/24 08:14:55;;;;;;;5.60;2.47;;;15.40;99.90;;;;;;4913376;29;20135;-82
2022/04/24 08:17:20;;;;;;;3.85;2.30;;;16.40;99.90;;;;;;4914719;29;20393;-82
2022/04/24 08:19:46;;;;;;;4.32;3.10;;;16.70;99.40;;;;;;4915139;29;20384;-80
2022/04/24 08:22:12;;;;;;;3.17;1.80;;;16.10;99.90;;;;;;4916195;29;20488;-82
2022/04/24 08:24:37;;;;;;;6.13;2.60;;;17.10;99.50;;;;;;4923179;29;20072;-80
2022/04/24 08:27:03;;;;;;;4.75;2.83;;;17.30;98.60;;;;;;4921606;29;20126;-79
2022/04/24 08:29:29;;;;;;;4.15;3.17;;;17.50;97.70;;;;;;4922151;29;20068;-79
2022/04/24 08:31:54;;;;;;;4.13;3.00;;;17.10;98.30;;;;;;4925117;29;20099;-80
2022/04/24 08:34:20;;;;;;;5.03;3.60;;;16.70;98.90;;;;;;4928194;29;20503;-80
2022/04/24 08:36:46;;;;;;;6.03;4.18;;;16.90;99.50;;;;;;4933396;29;20564;-81
2022/04/24 08:39:11;;;;;;;5.60;3.63;;;17.90;98.80;;;;;;4933761;29;20048;-79
2022/04/24 08:41:37;;;;;;;4.63;3.08;;;17.60;98.80;;;;;;4933208;29;20048;-81
2022/04/24 08:44:03;;;;;;;3.45;3.03;;;17.90;97.80;;;;;;4932488;29;20130;-80
2022/04/24 08:46:29;;;;;;;3.97;2.53;;;18.20;97.10;;;;;;4917903;29;20055;-81
2022/04/24 08:48:55;;;;;;;3.30;3.00;;;18.60;96.50;;;;;;4915844;29;20376;-81
2022/04/24 08:51:20;;;;;;;4.22;2.63;;;17.70;96.40;;;;;;4929449;29;20062;-81
2022/04/24 08:53:46;;;;;;;4.30;2.83;;;18.00;97.00;;;;;;4889791;29;20056;-81
2022/04/24 08:56:12;;;;;;;3.20;2.60;;;17.40;98.20;;;;;;4929572;29;20040;-82
2022/04/24 08:58:37;;;;;;;3.05;2.08;;;18.00;97.90;;;;;;4896847;29;21006;-80
2022/04/24 09:01:03;;;;;;;4.70;2.80;;;17.70;97.20;;;;;;4917969;29;20489;-81
2022/04/24 09:03:29;;;;;;;4.57;3.03;;;18.10;97.10;;;;;;4897521;29;20048;-82
2022/04/24 09:05:54;;;;;;;3.85;3.20;;;18.00;96.70;;;;;;4920405;29;20047;-80
2022/04/24 09:08:24;;;;;;;6.20;3.40;;;17.50;97.10;;;;;;4917176;29;20040;-81
2022/04/24 09:10:53;;;;;;;5.13;3.65;;;17.90;97.50;;;;;;4912411;29;20055;-80
2022/04/24 09:13:29;;;;;;;5.32;3.80;;;17.50;97.00;;;;;;4915267;29;20048;-81
2022/04/24 09:15:56;;;;;;;4.43;4.03;;;17.90;96.70;;;;;;4933791;29;20060;-82
2022/04/24 09:18:22;;;;;;;6.70;2.47;;;17.60;96.60;;;;;;4919649;29;20496;-80
2022/04/24 09:20:54;;;;;;;4.82;3.42;;;18.40;96.80;;;;;;4932065;29;20046;-81
2022/04/24 09:23:20;;;;;;;4.45;3.30;;;17.60;96.80;;;;;;4900859;29;20060;-82
2022/04/24 09:25:46;;;;;;;4.30;3.38;;;17.90;96.30;;;;;;4921956;29;20424;-82
2022/04/24 09:28:11;;;;;;;3.92;2.60;;;18.00;96.40;;;;;;4932827;29;20432;-81
2022/04/24 09:30:48;;;;;;;7.05;3.25;;;18.00;96.30;;;;;;4920266;29;20063;-83
2022/04/24 09:33:14;;;;;;;3.17;2.42;;;18.30;95.20;;;;;;4936548;29;20044;-82
2022/04/24 09:35:42;;;;;;;4.82;2.95;;;18.30;95.70;;;;;;4937352;29;20131;-81
2022/04/24 09:38:10;;;;;;;4.90;3.45;;;18.50;96.40;;;;;;4920431;29;20143;-82
2022/04/24 09:40:48;;;;;;;3.35;2.80;;;18.00;95.10;;;;;;4937175;29;20052;-84
2022/04/24 09:43:15;;;;;;;4.00;2.38;;;18.30;95.80;;;;;;4945897;29;20071;-83
2022/04/24 09:45:42;;;;;;;4.05;3.40;;;17.90;95.80;;;;;;4938782;29;20055;-81
2022/04/24 09:48:12;;;;;;;4.85;3.00;;;17.90;95.60;;;;;;4921326;29;20047;-81
2022/04/24 09:50:38;;;;;;;4.75;2.35;;;18.20;95.00;;;;;;4942998;29;20095;-82
2022/04/24 09:53:04;;;;;;;5.20;2.53;;;18.50;94.70;;;;;;4920049;29;20134;-84
2022/04/24 09:55:29;;;;;;;4.13;2.67;;;18.50;94.40;;;;;;4920077;29;20086;-81
2022/04/24 09:57:55;;;;;;;2.35;2.10;;;18.10;94.30;;;;;;4934983;29;20052;-82
2022/04/24 10:00:21;;;;;;;2.95;2.53;;;18.20;94.10;;;;;;4919545;29;20047;-82
2022/04/24 10:02:50;;;;;;;4.25;2.85;;;18.60;93.50;;;;;;4935890;29;20043;-81
2022/04/24 10:05:15;;;;;;;4.90;2.90;;;18.30;93.10;;;;;;4919252;29;20043;-82
2022/04/24 10:07:41;;;;;;;5.18;2.70;;;17.90;94.40;;;;;;4918125;29;20063;-83
2022/04/24 10:10:07;;;;;;;3.63;2.47;;;18.30;94.80;;;;;;4897081;29;20099;-83
2022/04/24 10:12:33;;;;;;;4.70;2.65;;;18.50;93.40;;;;;;4934467;29;20044;-82
2022/04/24 10:15:02;;;;;;;3.33;2.67;;;18.70;94.00;;;;;;4923722;29;20386;-82
2022/04/24 10:17:59;;;;;;;2.30;2.03;;;18.80;93.20;;;;;;4919961;29;20078;-81
2022/04/24 10:20:41;;;;;;;2.42;2.13;;;19.00;92.60;;;;;;4920318;29;20055;-81
2022/04/24 10:23:09;;;;;;;2.50;2.25;;;18.80;92.80;;;;;;4906060;29;20051;-81
2022/04/24 10:25:41;;;;;;;3.08;2.78;;;18.70;93.00;;;;;;4940193;29;20334;-80
2022/04/24 10:28:13;;;;;;;2.97;2.65;;;18.50;93.50;;;;;;4941328;29;20484;-83
2022/04/24 10:30:38;;;;;;;5.30;2.90;;;18.00;92.90;;;;;;4940134;29;20520;-80
2022/04/24 10:33:28;;;;;;;4.18;3.08;;;18.00;92.20;;;;;;4935812;29;20110;-81
2022/04/24 10:35:59;;;;;;;3.08;2.60;;;18.20;93.20;;;;;;4917461;29;20059;-80
2022/04/24 10:38:26;;;;;;;3.63;3.17;;;17.70;93.00;;;;;;4936647;29;20178;-81
2022/04/24 10:41:19;;;;;;;4.25;3.35;;;18.10;94.30;;;;;;4933242;29;20081;-83
2022/04/24 10:44:09;;;;;;;3.17;2.70;;;18.30;94.90;;;;;;4925860;29;20090;-81
2022/04/24 10:46:38;;;;;;;3.75;3.13;;;18.80;94.60;;;;;;4924628;29;20138;-80
2022/04/24 10:49:10;;;;;;;5.55;3.10;;;18.60;94.00;;;;;;4933950;29;20051;-81
2022/04/24 10:51:37;;;;;;;4.50;2.80;;;19.30;93.30;;;;;;4935208;29;20385;-82
2022/04/24 10:54:08;;;;;;;3.75;2.60;;;19.00;93.30;;;;;;4934733;29;20048;-80
2022/04/24 10:56:35;;;;;;;4.55;3.67;;;19.00;92.40;;;;;;4936037;29;20135;-83
2022/04/24 10:59:10;;;;;;;4.97;3.20;;;17.70;94.30;;;;;;4887772;29;20058;-82
2022/04/24 11:01:36;;;;;;;4.05;3.17;;;18.40;94.50;;;;;;4934341;29;20048;-82
2022/04/24 11:04:06;;;;;;;6.55;3.38;;;18.60;93.10;;;;;;4933211;29;20044;-82
2022/04/24 11:06:32;;;;;;;4.43;3.20;;;17.80;93.70;;;;;;4917964;29;20064;-81
2022/04/24 11:09:09;;;;;;;4.07;3.33;;;17.40;94.20;;;;;;4932709;29;20058;-82
2022/04/24 11:11:47;;;;;;;2.75;2.28;;;16.60;95.00;;;;;;4927224;29;20540;-82
2022/04/24 11:14:17;;;;;;;3.50;2.58;;;17.40;94.20;;;;;;4916765;29;20060;-83
2022/04/24 11:16:50;;;;;;;5.03;3.13;;;17.40;94.80;;;;;;4933936;29;20087;-81
2022/04/24 11:19:25;;;;;;;5.70;3.20;;;16.90;94.40;;;;;;4916367;29;20046;-81
2022/04/24 11:22:02;;;;;;;3.53;2.67;;;16.90;94.80;;;;;;4916131;29;20115;-82
2022/04/24 11:24:33;;;;;;;3.83;2.70;;;17.10;95.10;;;;;;4914297;29;20150;-82
2022/04/24 11:27:03;;;;;;;3.95;2.17;;;17.00;93.70;;;;;;4907369;29;20131;-81
2022/04/24 11:29:29;;;;;;;6.32;2.83;;;17.30;94.60;;;;;;4895962;29;20055;-81
2022/04/24 11:31:55;;;;;;;3.47;2.40;;;17.20;93.90;;;;;;4896574;29;20068;-83
2022/04/24 11:34:24;;;;;;;4.65;2.38;;;17.20;93.60;;;;;;4914847;29;20091;-84
2022/04/24 11:36:54;;;;;;;3.42;2.35;;;17.20;93.80;;;;;;4898532;29;20397;-81
2022/04/24 11:39:20;;;;;;;6.43;2.78;;;17.20;93.60;;;;;;4926812;29;20130;-82
2022/04/24 11:41:46;;;;;;;1.85;1.70;;;17.00;93.60;;;;;;4929812;29;20384;-81
2022/04/24 11:52:37;;;;;;;4.07;2.60;;;17.00;93.10;;;;;;4900774;29;20048;-82
2022/04/24 11:56:01;;;;;;;2.70;2.13;;;16.50;93.80;;;;;;4898111;29;20158;-85
2022/04/24 11:58:10;;;;;;;3.20;2.50;;;16.60;94.00;;;;;;4900315;29;20118;-83
2022/04/24 12:00:40;;;;;;;3.45;2.70;;;16.60;94.70;;;;;;4913941;29;20504;-82
2022/04/24 12:03:06;;;;;;;6.35;2.95;;;17.10;95.60;;;;;;4924494;29;20066;-82
2022/04/24 12:05:32;;;;;;;5.35;2.78;;;16.80;94.70;;;;;;4913896;29;20036;-82
2022/04/24 12:07:57;;;;;;;2.58;2.38;;;16.40;95.00;;;;;;4884152;29;20056;-84
2022/04/24 12:10:24;;;;;;;3.28;2.55;;;16.30;95.50;;;;;;4897590;29;20537;-82
2022/04/24 12:12:51;;;;;;;2.65;2.28;;;16.00;96.10;;;;;;4897481;29;20426;-82
2022/04/24 12:15:18;;;;;;;3.15;2.88;;;16.20;96.20;;;;;;4896360;29;20052;-83
2022/04/24 12:17:54;;;;;;;6.30;3.75;;;15.80;96.80;;;;;;4918246;29;20044;-82
2022/04/24 12:20:33;;;;;;;2.67;2.17;;;15.90;96.60;;;;;;4901282;29;20044;-82
2022/04/24 12:23:11;;;;;;;6.20;2.78;;;16.10;98.50;;;;;;4902441;29;20090;-82
2022/04/24 12:25:56;;;;;;;4.18;3.05;;;16.10;97.50;;;;;;4915457;29;20445;-83
2022/04/24 12:28:35;;;;;;;4.72;2.78;;;16.30;98.80;;;;;;4914463;29;20055;-83
2022/04/24 12:31:02;;;;;;;4.65;3.30;;;16.40;97.50;;;;;;4897169;29;20453;-82
2022/04/24 12:33:31;;;;;;;6.93;3.03;;;16.60;97.40;;;;;;4923647;29;20050;-83
2022/04/24 12:36:08;;;;;;;3.22;2.38;;;16.60;97.50;;;;;;4916134;29;20052;-83
2022/04/24 12:38:33;;;;;;;3.50;2.80;;;16.50;97.80;;;;;;4917965;29;20054;-84
2022/04/24 12:40:59;;;;;;;3.28;2.60;;;16.20;97.90;;;;;;4905165;29;20044;-82
2022/04/24 12:43:30;;;;;;;5.63;3.30;;;16.30;98.30;;;;;;4926504;29;20059;-81
2022/04/24 12:45:56;;;;;;;4.35;3.53;;;16.20;98.80;;;;;;4948166;29;20091;-83
2022/04/24 12:48:23;;;;;;;4.18;3.35;;;16.20;98.70;;;;;;4921057;29;20048;-83
2022/04/24 12:50:52;;;;;;;4.47;3.38;;;16.00;98.50;;;;;;4928255;29;20063;-84
2022/04/24 12:53:18;;;;;;;5.85;3.63;;;16.00;99.20;;;;;;4907345;29;20054;-81
2022/04/24 12:55:45;;;;;;;5.53;3.38;;;16.10;99.20;;;;;;4918448;29;20404;-84